Time;durP1;ratioP1;P1;durP2;ratioP2;P2;SDS_P1;SDS_P2;PMS_P1;PMS_P2;Temp;Humidity;BMP_temperature;BMP_pressure;BME280_temperature;BME280_humidity;BME280_pressure;Samples;Min_cycle;Max_cycle;Signal;HPM_P1;HPM_P2
2023/05/31 00:01:40;;;;;;;9.45;4.53;;;;;;;;;;5045923;28;20461;-61
2023/05/31 00:04:06;;;;;;;12.95;5.97;;;;;;;;;;5046023;28;20029;-62
2023/05/31 00:06:31;;;;;;;12.23;4.72;;;;;;;;;;5046184;28;20045;-62
2023/05/31 00:08:57;;;;;;;14.25;4.50;;;;;;;;;;5046259;28;20507;-61
2023/05/31 00:11:22;;;;;;;11.43;4.03;;;;;;;;;;5046042;28;20098;-60
2023/05/31 00:13:47;;;;;;;8.57;4.13;;;;;;;;;;5046215;28;20115;-61
2023/05/31 00:16:13;;;;;;;14.00;4.35;;;;;;;;;;5046114;28;20265;-61
2023/05/31 00:18:38;;;;;;;11.82;4.18;;;;;;;;;;5045943;28;20097;-59
2023/05/31 00:21:04;;;;;;;9.63;4.68;;;;;;;;;;5045969;28;20025;-61
2023/05/31 00:23:30;;;;;;;7.28;4.28;;;;;;;;;;5046021;28;20025;-61
2023/05/31 00:25:55;;;;;;;9.77;4.35;;;;;;;;;;5045957;28;20096;-60
2023/05/31 00:28:20;;;;;;;8.20;4.30;;;;;;;;;;5028347;28;20190;-61
2023/05/31 00:30:45;;;;;;;12.68;4.63;;;;;;;;;;5045739;28;20337;-62
2023/05/31 00:33:11;;;;;;;8.27;4.50;;;;;;;;;;5045806;28;20067;-61
2023/05/31 00:35:36;;;;;;;9.65;4.55;;;;;;;;;;5045982;28;20393;-61
2023/05/31 00:38:03;;;;;;;6.87;4.27;;;;;;;;;;5044800;28;20032;-62
2023/05/31 00:40:29;;;;;;;9.38;4.25;;;;;;;;;;5045777;28;20343;-61
2023/05/31 00:42:54;;;;;;;11.75;4.75;;;;;;;;;;5045873;28;20060;-62
2023/05/31 00:45:19;;;;;;;9.27;4.22;;;;;;;;;;5027882;28;20021;-62
2023/05/31 00:47:45;;;;;;;8.15;4.25;;;;;;;;;;5045549;28;20507;-61
2023/05/31 00:50:10;;;;;;;11.25;4.85;;;;;;;;;;5045877;28;20396;-57
2023/05/31 00:52:36;;;;;;;7.90;4.20;;;;;;;;;;5045681;28;20021;-61
2023/05/31 00:55:02;;;;;;;7.78;4.32;;;;;;;;;;5045255;28;20028;-59
2023/05/31 00:57:27;;;;;;;11.95;4.07;;;;;;;;;;5027308;28;20037;-59
2023/05/31 00:59:52;;;;;;;8.30;4.35;;;;;;;;;;5045683;28;20025;-61
2023/05/31 01:02:18;;;;;;;10.43;4.50;;;;;;;;;;5045385;28;20542;-61
2023/05/31 01:04:44;;;;;;;6.65;3.63;;;;;;;;;;5045269;28;20487;-61
2023/05/31 01:07:09;;;;;;;9.43;3.70;;;;;;;;;;5045626;28;20396;-61
2023/05/31 01:09:36;;;;;;;12.32;3.85;;;;;;;;;;5045268;28;20546;-61
2023/05/31 01:12:05;;;;;;;11.18;4.28;;;;;;;;;;5045159;28;20032;-61
2023/05/31 01:14:34;;;;;;;8.05;4.25;;;;;;;;;;5045292;28;20017;-61
2023/05/31 01:17:08;;;;;;;8.57;4.40;;;;;;;;;;5044983;28;20400;-61
2023/05/31 01:19:47;;;;;;;7.70;4.20;;;;;;;;;;5044598;28;20799;-61
2023/05/31 01:22:17;;;;;;;9.68;4.53;;;;;;;;;;5045132;28;20025;-61
2023/05/31 01:24:52;;;;;;;8.85;4.15;;;;;;;;;;5044921;28;20398;-61
2023/05/31 01:27:18;;;;;;;7.80;4.05;;;;;;;;;;5026605;28;20385;-61
2023/05/31 01:29:44;;;;;;;6.32;3.50;;;;;;;;;;5044672;28;20025;-61
2023/05/31 01:32:13;;;;;;;6.78;3.85;;;;;;;;;;5044380;28;20057;-61
2023/05/31 01:34:38;;;;;;;15.65;4.65;;;;;;;;;;5045118;28;20028;-59
2023/05/31 01:37:04;;;;;;;11.32;4.18;;;;;;;;;;5044407;28;20029;-61
2023/05/31 01:39:29;;;;;;;10.65;4.25;;;;;;;;;;5044430;28;20025;-61
2023/05/31 01:41:55;;;;;;;15.77;4.00;;;;;;;;;;5044681;28;20543;-60
2023/05/31 01:44:20;;;;;;;14.50;4.78;;;;;;;;;;5044624;28;20021;-61
2023/05/31 01:46:46;;;;;;;6.55;3.70;;;;;;;;;;5044169;28;20044;-59
2023/05/31 01:49:12;;;;;;;9.88;3.78;;;;;;;;;;5043718;28;20021;-60
2023/05/31 01:51:39;;;;;;;6.43;3.97;;;;;;;;;;5044164;28;20013;-60
2023/05/31 01:54:05;;;;;;;9.88;4.50;;;;;;;;;;5043834;28;20138;-61
2023/05/31 01:56:30;;;;;;;10.38;4.55;;;;;;;;;;5043537;28;20029;-60
2023/05/31 01:58:57;;;;;;;8.02;3.85;;;;;;;;;;5044056;28;20041;-61
2023/05/31 02:01:22;;;;;;;9.73;4.15;;;;;;;;;;5044086;28;20036;-62
2023/05/31 02:03:51;;;;;;;11.25;4.03;;;;;;;;;;5043851;28;20029;-61
2023/05/31 02:06:16;;;;;;;5.87;4.00;;;;;;;;;;5043753;28;20044;-61
2023/05/31 02:08:41;;;;;;;7.07;3.53;;;;;;;;;;5043770;28;20024;-61
2023/05/31 02:11:07;;;;;;;11.13;4.18;;;;;;;;;;5043753;28;20483;-61
2023/05/31 02:13:33;;;;;;;9.68;3.88;;;;;;;;;;5043951;28;20079;-60
2023/05/31 02:15:58;;;;;;;11.35;4.90;;;;;;;;;;5043848;28;20056;-58
2023/05/31 02:18:26;;;;;;;9.57;4.40;;;;;;;;;;5043450;28;20057;-61
2023/05/31 02:20:52;;;;;;;10.80;3.90;;;;;;;;;;5043921;28;20027;-60
2023/05/31 02:23:17;;;;;;;11.60;4.18;;;;;;;;;;5025632;28;20112;-58
2023/05/31 02:25:44;;;;;;;9.27;4.10;;;;;;;;;;5043339;28;20153;-58
2023/05/31 02:28:10;;;;;;;9.68;4.68;;;;;;;;;;5043941;28;20249;-61
2023/05/31 02:30:36;;;;;;;7.90;4.05;;;;;;;;;;5043488;28;20025;-61
2023/05/31 02:33:02;;;;;;;11.40;4.15;;;;;;;;;;5043557;28;20024;-61
2023/05/31 02:35:27;;;;;;;10.65;4.00;;;;;;;;;;5043198;28;20375;-60
2023/05/31 02:37:52;;;;;;;8.68;4.13;;;;;;;;;;5043168;28;20458;-61
2023/05/31 02:40:18;;;;;;;8.83;4.00;;;;;;;;;;5043736;28;20024;-61
2023/05/31 02:42:43;;;;;;;10.10;4.32;;;;;;;;;;5043213;28;20618;-61
2023/05/31 02:45:09;;;;;;;5.13;3.75;;;;;;;;;;5043621;28;20052;-60
2023/05/31 02:47:36;;;;;;;8.98;4.47;;;;;;;;;;5043459;28;20052;-58
2023/05/31 02:50:01;;;;;;;8.77;3.97;;;;;;;;;;5043661;28;20039;-59
2023/05/31 02:52:27;;;;;;;11.77;4.45;;;;;;;;;;5043106;28;20396;-61
2023/05/31 02:54:52;;;;;;;10.82;4.00;;;;;;;;;;5043188;28;20056;-61
2023/05/31 02:57:18;;;;;;;14.32;4.22;;;;;;;;;;5043054;28;20027;-60
2023/05/31 02:59:43;;;;;;;11.93;3.95;;;;;;;;;;5043531;28;20105;-61
2023/05/31 03:02:09;;;;;;;8.40;4.03;;;;;;;;;;5047207;28;20033;-60
2023/05/31 03:04:35;;;;;;;7.47;4.03;;;;;;;;;;5047124;28;20029;-60
2023/05/31 03:07:00;;;;;;;9.60;4.25;;;;;;;;;;5046956;28;20080;-61
2023/05/31 03:09:25;;;;;;;13.43;4.22;;;;;;;;;;5047213;28;20390;-59
2023/05/31 03:11:51;;;;;;;7.50;4.00;;;;;;;;;;5047292;28;20059;-60
2023/05/31 03:14:16;;;;;;;8.43;4.00;;;;;;;;;;5046976;28;20477;-60
2023/05/31 03:16:42;;;;;;;9.77;4.63;;;;;;;;;;5046970;28;20325;-59
2023/05/31 03:19:08;;;;;;;6.45;4.10;;;;;;;;;;5046728;28;20021;-60
2023/05/31 03:21:33;;;;;;;8.15;4.13;;;;;;;;;;5046850;28;20036;-61
2023/05/31 03:23:58;;;;;;;9.18;3.60;;;;;;;;;;5046805;28;20070;-61
2023/05/31 03:26:24;;;;;;;11.95;3.72;;;;;;;;;;5046681;28;20883;-61
2023/05/31 03:28:49;;;;;;;8.90;3.90;;;;;;;;;;5046948;28;20408;-60
2023/05/31 03:31:15;;;;;;;6.82;3.95;;;;;;;;;;5046502;28;20166;-59
2023/05/31 03:33:40;;;;;;;4.68;3.65;;;;;;;;;;5046546;28;20029;-61
2023/05/31 03:36:06;;;;;;;9.05;3.95;;;;;;;;;;5046847;28;20017;-59
2023/05/31 03:38:31;;;;;;;15.15;3.92;;;;;;;;;;5046870;28;20182;-60
2023/05/31 03:40:56;;;;;;;12.45;4.20;;;;;;;;;;5046843;28;20498;-58
2023/05/31 03:43:21;;;;;;;7.10;3.42;;;;;;;;;;5046370;28;20662;-60
2023/05/31 03:45:47;;;;;;;8.73;3.63;;;;;;;;;;5046547;28;20021;-61
2023/05/31 03:48:12;;;;;;;12.23;3.90;;;;;;;;;;5011361;28;20377;-57
2023/05/31 03:50:39;;;;;;;7.90;3.88;;;;;;;;;;5046531;28;20029;-61
2023/05/31 03:53:04;;;;;;;6.82;3.72;;;;;;;;;;5046605;28;20545;-60
2023/05/31 03:55:30;;;;;;;9.35;4.35;;;;;;;;;;5046033;28;20021;-61
2023/05/31 03:57:55;;;;;;;10.43;4.00;;;;;;;;;;5027803;28;20048;-63
2023/05/31 04:00:21;;;;;;;8.53;3.63;;;;;;;;;;5046305;28;20479;-60
2023/05/31 04:02:46;;;;;;;8.10;3.28;;;;;;;;;;5046031;28;20252;-58
2023/05/31 04:05:12;;;;;;;9.68;3.40;;;;;;;;;;5045850;28;20271;-61
2023/05/31 04:07:37;;;;;;;8.80;3.58;;;;;;;;;;5045740;28;20423;-60
2023/05/31 04:10:02;;;;;;;9.90;3.58;;;;;;;;;;5028301;28;20397;-61
2023/05/31 04:12:28;;;;;;;7.45;3.45;;;;;;;;;;5044336;28;20492;-60
2023/05/31 04:14:53;;;;;;;8.98;3.83;;;;;;;;;;5046449;28;20393;-61
2023/05/31 04:17:18;;;;;;;10.55;4.10;;;;;;;;;;4994404;28;20090;-60
2023/05/31 04:19:44;;;;;;;9.15;3.65;;;;;;;;;;5045603;28;20385;-60
2023/05/31 04:22:09;;;;;;;9.82;3.83;;;;;;;;;;5045768;28;20031;-61
2023/05/31 04:24:34;;;;;;;7.45;3.35;;;;;;;;;;5045634;28;20104;-59
2023/05/31 04:27:02;;;;;;;13.75;4.03;;;;;;;;;;5045598;28;20393;-60
2023/05/31 04:29:28;;;;;;;5.90;3.78;;;;;;;;;;5045559;28;20116;-61
2023/05/31 04:31:53;;;;;;;9.73;3.65;;;;;;;;;;5045250;28;20104;-61
2023/05/31 04:34:18;;;;;;;6.85;4.00;;;;;;;;;;5045742;28;20055;-60
2023/05/31 04:36:44;;;;;;;10.43;3.72;;;;;;;;;;5045023;28;20112;-61
2023/05/31 04:39:14;;;;;;;8.20;3.45;;;;;;;;;;5045180;28;20383;-59
2023/05/31 04:41:39;;;;;;;6.03;3.90;;;;;;;;;;5045328;28;20029;-60
2023/05/31 04:44:05;;;;;;;10.02;4.25;;;;;;;;;;5045103;28;20163;-60
2023/05/31 04:46:31;;;;;;;6.43;3.40;;;;;;;;;;5045047;28;20023;-61
2023/05/31 04:48:57;;;;;;;11.27;3.28;;;;;;;;;;5045266;28;20025;-61
2023/05/31 04:51:22;;;;;;;8.40;3.58;;;;;;;;;;5009045;28;20352;-58
2023/05/31 04:53:48;;;;;;;11.38;3.53;;;;;;;;;;5044863;28;20544;-61
2023/05/31 04:56:14;;;;;;;9.85;3.47;;;;;;;;;;5044923;28;20098;-59
2023/05/31 04:58:39;;;;;;;12.27;3.15;;;;;;;;;;5044479;28;20065;-61
2023/05/31 05:01:05;;;;;;;10.68;4.15;;;;;;;;;;5044968;28;20044;-60
2023/05/31 05:03:31;;;;;;;7.10;3.40;;;;;;;;;;5044695;28;20025;-62
2023/05/31 05:05:56;;;;;;;11.07;3.58;;;;;;;;;;5044830;28;20013;-58
2023/05/31 05:08:22;;;;;;;11.10;3.90;;;;;;;;;;5044812;28;20025;-60
2023/05/31 05:10:48;;;;;;;8.43;4.10;;;;;;;;;;5044665;28;20024;-60
2023/05/31 05:13:14;;;;;;;6.30;3.47;;;;;;;;;;5044939;28;20021;-61
2023/05/31 05:15:39;;;;;;;10.88;4.28;;;;;;;;;;5044317;28;20383;-62
2023/05/31 05:18:05;;;;;;;12.52;3.72;;;;;;;;;;5044604;28;20398;-59
2023/05/31 05:20:31;;;;;;;7.60;4.07;;;;;;;;;;5045200;28;20047;-62
2023/05/31 05:22:56;;;;;;;9.70;3.38;;;;;;;;;;5044085;28;20457;-60
2023/05/31 05:25:22;;;;;;;7.33;3.53;;;;;;;;;;5026417;28;20029;-61
2023/05/31 05:27:47;;;;;;;9.38;4.00;;;;;;;;;;5044412;28;20757;-60
2023/05/31 05:30:13;;;;;;;7.57;3.72;;;;;;;;;;5044538;28;20381;-61
2023/05/31 05:32:38;;;;;;;12.20;3.83;;;;;;;;;;5044267;28;20025;-59
2023/05/31 05:35:04;;;;;;;9.23;3.88;;;;;;;;;;5044200;28;20532;-58
2023/05/31 05:37:30;;;;;;;6.97;3.33;;;;;;;;;;5045529;28;20025;-61
2023/05/31 05:39:55;;;;;;;10.00;3.78;;;;;;;;;;5054966;28;20507;-62
2023/05/31 05:42:21;;;;;;;11.57;3.50;;;;;;;;;;5049356;28;20104;-62
2023/05/31 05:44:46;;;;;;;11.52;4.05;;;;;;;;;;5043116;28;20021;-61
2023/05/31 05:47:12;;;;;;;11.68;4.13;;;;;;;;;;5043081;28;20029;-61
2023/05/31 05:49:37;;;;;;;11.57;3.17;;;;;;;;;;5043145;28;20028;-61
2023/05/31 05:52:03;;;;;;;6.97;2.88;;;;;;;;;;5045929;28;20397;-62
2023/05/31 05:54:28;;;;;;;8.35;3.58;;;;;;;;;;5040294;28;20099;-62
2023/05/31 05:56:53;;;;;;;10.23;3.40;;;;;;;;;;5052729;28;20029;-58
2023/05/31 05:59:18;;;;;;;8.63;3.20;;;;;;;;;;5052854;28;20089;-61
2023/05/31 06:01:44;;;;;;;11.07;3.57;;;;;;;;;;5046103;28;20257;-61
2023/05/31 06:04:09;;;;;;;12.23;3.40;;;;;;;;;;5055287;28;20748;-58
2023/05/31 06:06:35;;;;;;;7.83;3.20;;;;;;;;;;5027866;28;20033;-61
2023/05/31 06:09:00;;;;;;;10.63;3.92;;;;;;;;;;5055003;28;20273;-59
2023/05/31 06:11:26;;;;;;;8.05;3.33;;;;;;;;;;5050311;28;20032;-60
2023/05/31 06:13:56;;;;;;;10.80;3.13;;;;;;;;;;5000367;28;20114;-62
2023/05/31 06:16:22;;;;;;;11.40;3.50;;;;;;;;;;5050841;28;20686;-62
2023/05/31 06:18:47;;;;;;;8.52;3.25;;;;;;;;;;5048017;28;20051;-63
2023/05/31 06:21:12;;;;;;;9.87;3.60;;;;;;;;;;5050094;28;20321;-61
2023/05/31 06:23:38;;;;;;;6.18;3.03;;;;;;;;;;5044307;28;20801;-63
2023/05/31 06:26:03;;;;;;;8.02;3.33;;;;;;;;;;5055693;28;20052;-65
2023/05/31 06:28:28;;;;;;;6.97;3.67;;;;;;;;;;5021611;28;20086;-66
2023/05/31 06:30:54;;;;;;;10.80;3.33;;;;;;;;;;5027339;28;20104;-63
2023/05/31 06:33:19;;;;;;;13.18;4.25;;;;;;;;;;5050852;28;20021;-65
2023/05/31 06:35:44;;;;;;;14.73;3.60;;;;;;;;;;5047670;28;20060;-61
2023/05/31 06:38:16;;;;;;;9.35;3.97;;;;;;;;;;5060913;28;20025;-63
2023/05/31 06:40:42;;;;;;;9.02;3.22;;;;;;;;;;5051916;28;20140;-61
2023/05/31 06:43:08;;;;;;;10.68;3.40;;;;;;;;;;5046239;28;20017;-61
2023/05/31 06:45:33;;;;;;;7.93;3.60;;;;;;;;;;5048293;28;20021;-63
2023/05/31 06:47:58;;;;;;;10.52;4.05;;;;;;;;;;5056330;28;20032;-62
2023/05/31 06:50:24;;;;;;;8.13;3.67;;;;;;;;;;5045734;28;20412;-62
2023/05/31 06:52:49;;;;;;;9.98;2.90;;;;;;;;;;5027614;28;20025;-63
2023/05/31 06:55:14;;;;;;;10.68;3.10;;;;;;;;;;5023582;28;20098;-61
2023/05/31 06:57:39;;;;;;;7.65;3.42;;;;;;;;;;5056004;28;20033;-62
2023/05/31 07:00:07;;;;;;;12.53;4.00;;;;;;;;;;5044528;28;20404;-62
2023/05/31 07:02:32;;;;;;;11.60;3.72;;;;;;;;;;5049252;28;20307;-64
2023/05/31 07:04:59;;;;;;;6.57;3.00;;;;;;;;;;5047632;28;20399;-59
2023/05/31 07:07:25;;;;;;;8.02;3.03;;;;;;;;;;5057957;28;20447;-59
2023/05/31 07:09:51;;;;;;;11.98;3.75;;;;;;;;;;5055883;28;20420;-59
2023/05/31 07:12:16;;;;;;;5.18;2.83;;;;;;;;;;5055609;28;20024;-63
2023/05/31 07:14:41;;;;;;;10.57;3.40;;;;;;;;;;5026829;28;20443;-59
2023/05/31 07:17:06;;;;;;;10.43;3.77;;;;;;;;;;5057355;28;20293;-58
2023/05/31 07:19:32;;;;;;;11.40;3.33;;;;;;;;;;5039480;28;20309;-61
2023/05/31 07:21:57;;;;;;;6.20;2.93;;;;;;;;;;5045626;28;20273;-64
2023/05/31 07:24:22;;;;;;;11.02;3.38;;;;;;;;;;5045951;28;20274;-60
2023/05/31 07:26:48;;;;;;;9.77;3.30;;;;;;;;;;5042067;28;20024;-63
2023/05/31 07:29:13;;;;;;;11.57;3.47;;;;;;;;;;5044012;28;20273;-64
2023/05/31 07:31:38;;;;;;;11.88;3.80;;;;;;;;;;5056788;28;20246;-64
2023/05/31 07:34:03;;;;;;;11.97;3.37;;;;;;;;;;5004975;28;20098;-60
2023/05/31 07:36:29;;;;;;;14.10;3.60;;;;;;;;;;5056999;28;20701;-63
2023/05/31 07:38:54;;;;;;;9.35;3.20;;;;;;;;;;5048301;28;20029;-64
2023/05/31 07:41:20;;;;;;;6.53;3.13;;;;;;;;;;5050195;28;20044;-62
2023/05/31 07:43:46;;;;;;;17.13;5.53;;;;;;;;;;5061435;28;20048;-62
2023/05/31 07:46:11;;;;;;;9.07;3.20;;;;;;;;;;5062482;28;20111;-64
2023/05/31 07:48:37;;;;;;;5.80;2.95;;;;;;;;;;5061815;28;20024;-63
2023/05/31 07:51:02;;;;;;;10.93;3.03;;;;;;;;;;5050478;28;20053;-60
2023/05/31 07:53:27;;;;;;;8.10;3.28;;;;;;;;;;5044788;28;20414;-62
2023/05/31 07:55:53;;;;;;;8.90;3.67;;;;;;;;;;5060790;28;20038;-64
2023/05/31 07:58:19;;;;;;;10.48;3.50;;;;;;;;;;5049367;28;20298;-63
2023/05/31 08:00:44;;;;;;;10.15;3.47;;;;;;;;;;5059324;28;20090;-56
2023/05/31 08:03:10;;;;;;;4.90;2.88;;;;;;;;;;5064659;28;20032;-63
2023/05/31 08:05:35;;;;;;;9.40;3.65;;;;;;;;;;5059551;28;20056;-63
2023/05/31 08:08:00;;;;;;;8.88;3.17;;;;;;;;;;5046327;28;20576;-59
2023/05/31 08:10:26;;;;;;;6.47;2.70;;;;;;;;;;5046994;28;20072;-61
2023/05/31 08:12:51;;;;;;;6.80;3.00;;;;;;;;;;5061635;28;20281;-60
2023/05/31 08:15:16;;;;;;;8.95;3.33;;;;;;;;;;5057681;28;20360;-59
2023/05/31 08:17:43;;;;;;;10.73;3.15;;;;;;;;;;5045527;28;20461;-63
2023/05/31 08:20:10;;;;;;;10.93;3.08;;;;;;;;;;5045607;28;20036;-64
2023/05/31 08:22:35;;;;;;;9.95;4.15;;;;;;;;;;5045531;28;20025;-63
2023/05/31 08:25:00;;;;;;;7.85;3.13;;;;;;;;;;5048885;28;20035;-61
2023/05/31 08:27:26;;;;;;;10.02;3.13;;;;;;;;;;5060003;28;20021;-63
2023/05/31 08:29:51;;;;;;;7.77;3.40;;;;;;;;;;5054027;28;20067;-63
2023/05/31 08:32:17;;;;;;;14.33;4.03;;;;;;;;;;5043080;28;20246;-60
2023/05/31 08:34:43;;;;;;;7.72;3.25;;;;;;;;;;5045396;28;20889;-63
2023/05/31 08:37:08;;;;;;;10.57;3.28;;;;;;;;;;5027471;28;20026;-61
2023/05/31 08:39:34;;;;;;;8.25;3.00;;;;;;;;;;5044905;28;20025;-63
2023/05/31 08:42:01;;;;;;;11.50;3.43;;;;;;;;;;5027580;28;20025;-63
2023/05/31 08:44:27;;;;;;;10.90;3.30;;;;;;;;;;5045826;28;20254;-63
2023/05/31 08:46:55;;;;;;;10.63;3.63;;;;;;;;;;5043751;28;20044;-62
2023/05/31 08:49:21;;;;;;;6.70;3.50;;;;;;;;;;5056324;28;20020;-61
2023/05/31 08:51:47;;;;;;;9.48;3.35;;;;;;;;;;5064827;28;20294;-61
2023/05/31 08:54:13;;;;;;;7.70;3.42;;;;;;;;;;5062035;28;20021;-64
2023/05/31 08:56:39;;;;;;;9.25;2.88;;;;;;;;;;5044126;28;20017;-59
2023/05/31 08:59:07;;;;;;;8.10;3.95;;;;;;;;;;5025098;28;20097;-61
2023/05/31 09:01:32;;;;;;;9.98;3.05;;;;;;;;;;5047511;28;20024;-60
2023/05/31 09:03:58;;;;;;;11.68;3.38;;;;;;;;;;5048019;28;20028;-63
2023/05/31 09:06:23;;;;;;;13.45;3.60;;;;;;;;;;5054498;28;20494;-69
2023/05/31 09:08:49;;;;;;;8.90;3.63;;;;;;;;;;5051951;28;20035;-62
2023/05/31 09:11:14;;;;;;;6.85;3.15;;;;;;;;;;5051034;28;20040;-63
2023/05/31 09:13:40;;;;;;;7.15;3.53;;;;;;;;;;5050918;28;20457;-64
2023/05/31 09:16:05;;;;;;;7.20;3.10;;;;;;;;;;5049880;28;20095;-62
2023/05/31 09:18:38;;;;;;;14.02;3.45;;;;;;;;;;5048638;28;20028;-62
2023/05/31 09:21:08;;;;;;;4.65;2.80;;;;;;;;;;5051412;28;20025;-59
2023/05/31 09:23:33;;;;;;;7.07;3.10;;;;;;;;;;5061720;28;20380;-61
2023/05/31 09:25:59;;;;;;;10.57;3.37;;;;;;;;;;5054245;28;20025;-59
2023/05/31 09:28:25;;;;;;;9.73;3.65;;;;;;;;;;5035397;28;20021;-60
2023/05/31 09:31:04;;;;;;;12.20;3.83;;;;;;;;;;5054134;28;20012;-63
2023/05/31 09:33:56;;;;;;;14.88;3.88;;;;;;;;;;5052575;28;20389;-60
2023/05/31 09:36:28;;;;;;;23.15;3.97;;;;;;;;;;4949136;28;20134;-61
2023/05/31 09:39:00;;;;;;;7.80;3.58;;;;;;;;;;4943215;28;20047;-63
2023/05/31 09:41:26;;;;;;;9.18;3.70;;;;;;;;;;4943615;29;20046;-59
2023/05/31 09:43:51;;;;;;;11.27;3.83;;;;;;;;;;4943830;29;20076;-62
2023/05/31 09:46:18;;;;;;;9.73;3.60;;;;;;;;;;4943570;29;20113;-63
2023/05/31 09:48:44;;;;;;;7.00;3.80;;;;;;;;;;4943355;29;20078;-63
2023/05/31 09:51:10;;;;;;;9.93;3.65;;;;;;;;;;4943378;29;20023;-63
2023/05/31 09:53:43;;;;;;;16.75;3.80;;;;;;;;;;4911441;29;20040;-57
2023/05/31 09:56:16;;;;;;;8.73;3.53;;;;;;;;;;4948824;28;20027;-63
2023/05/31 09:58:41;;;;;;;8.02;3.53;;;;;;;;;;4943334;28;20050;-60
2023/05/31 10:01:08;;;;;;;10.90;3.58;;;;;;;;;;4942925;28;20048;-63
2023/05/31 10:03:34;;;;;;;10.10;3.30;;;;;;;;;;4959533;28;20031;-60
2023/05/31 10:05:59;;;;;;;12.10;3.65;;;;;;;;;;4959371;28;20060;-63
2023/05/31 10:08:25;;;;;;;9.65;3.53;;;;;;;;;;4962658;28;20113;-61
2023/05/31 10:10:52;;;;;;;7.07;3.40;;;;;;;;;;4942738;28;20055;-58
2023/05/31 10:13:18;;;;;;;5.93;3.63;;;;;;;;;;4998046;28;20036;-57
2023/05/31 10:15:46;;;;;;;7.15;3.58;;;;;;;;;;5043791;28;20476;-63
2023/05/31 10:18:14;;;;;;;6.50;3.60;;;;;;;;;;5024437;28;20036;-61
2023/05/31 10:20:46;;;;;;;9.00;3.72;;;;;;;;;;5044436;28;20033;-61
2023/05/31 10:23:17;;;;;;;8.88;4.45;;;;;;;;;;5063816;28;20028;-62
2023/05/31 10:25:50;;;;;;;9.30;3.90;;;;;;;;;;5046160;28;20024;-62
2023/05/31 10:28:17;;;;;;;9.70;4.03;;;;;;;;;;5043304;28;20063;-61
2023/05/31 10:30:43;;;;;;;11.18;4.57;;;;;;;;;;5043456;28;20021;-62
2023/05/31 10:33:12;;;;;;;13.68;4.68;;;;;;;;;;5044619;28;20587;-61
2023/05/31 10:35:37;;;;;;;8.18;3.67;;;;;;;;;;5049161;28;20298;-62
2023/05/31 10:38:03;;;;;;;7.03;3.83;;;;;;;;;;5055383;28;20692;-60
2023/05/31 10:40:36;;;;;;;28.88;4.30;;;;;;;;;;5053570;28;20737;-59
2023/05/31 10:43:21;;;;;;;14.93;4.45;;;;;;;;;;5063346;28;20382;-61
2023/05/31 10:45:50;;;;;;;8.77;3.58;;;;;;;;;;5043140;28;20672;-60
2023/05/31 10:48:22;;;;;;;10.55;3.75;;;;;;;;;;5041417;28;20021;-60
2023/05/31 10:50:52;;;;;;;13.20;4.72;;;;;;;;;;5044201;28;20052;-61
2023/05/31 10:53:17;;;;;;;6.70;3.75;;;;;;;;;;5043878;28;20112;-60
2023/05/31 10:55:43;;;;;;;12.50;4.20;;;;;;;;;;5048175;28;20496;-58
2023/05/31 10:58:27;;;;;;;8.55;3.88;;;;;;;;;;5063218;28;20475;-57
2023/05/31 11:00:56;;;;;;;10.77;3.83;;;;;;;;;;5047917;28;20056;-61
2023/05/31 11:03:23;;;;;;;13.32;4.05;;;;;;;;;;5043292;28;20484;-61
2023/05/31 11:05:55;;;;;;;8.18;3.20;;;;;;;;;;5048608;28;20510;-63
2023/05/31 11:08:20;;;;;;;10.48;4.15;;;;;;;;;;5056195;28;20029;-63
2023/05/31 11:10:45;;;;;;;9.25;4.47;;;;;;;;;;5046700;28;20025;-59
2023/05/31 11:13:11;;;;;;;11.20;3.60;;;;;;;;;;5042395;28;20028;-62
2023/05/31 11:15:40;;;;;;;10.75;3.85;;;;;;;;;;5049049;28;20273;-60
2023/05/31 11:18:09;;;;;;;5.70;3.85;;;;;;;;;;5053323;28;20387;-62
2023/05/31 11:20:38;;;;;;;11.15;3.83;;;;;;;;;;5022748;28;20566;-62
2023/05/31 11:23:03;;;;;;;;;;;;;;;;;;5059663;28;20074;-62
2023/05/31 11:25:28;;;;;;;13.45;3.70;;;;;;;;;;5054907;28;19932;-62
2023/05/31 11:28:05;;;;;;;7.63;3.65;;;;;;;;;;5009297;28;20036;-59
2023/05/31 11:30:34;;;;;;;12.07;4.43;;;;;;;;;;5046757;28;20032;-62
2023/05/31 11:33:00;;;;;;;8.18;3.40;;;;;;;;;;5061082;28;20021;-61
2023/05/31 11:35:25;;;;;;;10.05;3.88;;;;;;;;;;5048612;28;20480;-60
2023/05/31 11:37:58;;;;;;;6.85;3.53;;;;;;;;;;5046917;28;20025;-60
2023/05/31 11:40:23;;;;;;;8.00;3.92;;;;;;;;;;5048034;28;20013;-60
2023/05/31 11:42:49;;;;;;;7.37;3.27;;;;;;;;;;5045802;28;20055;-60
2023/05/31 11:45:20;;;;;;;8.30;3.55;;;;;;;;;;5048971;28;20021;-59
2023/05/31 11:48:04;;;;;;;12.73;4.70;;;;;;;;;;5051148;28;20033;-63
2023/05/31 11:50:30;;;;;;;6.55;3.30;;;;;;;;;;5032204;28;20721;-58
2023/05/31 11:52:58;;;;;;;11.15;4.00;;;;;;;;;;5053149;28;20044;-59
2023/05/31 11:55:30;;;;;;;11.85;3.95;;;;;;;;;;5059962;28;20081;-59
2023/05/31 11:57:56;;;;;;;8.55;3.80;;;;;;;;;;5044930;28;20067;-61
2023/05/31 12:00:21;;;;;;;9.50;3.92;;;;;;;;;;5045107;28;20040;-60
2023/05/31 12:02:51;;;;;;;10.55;3.63;;;;;;;;;;5043174;28;20021;-61
2023/05/31 12:05:17;;;;;;;9.82;3.88;;;;;;;;;;5058929;28;20031;-62
2023/05/31 12:07:42;;;;;;;9.95;3.30;;;;;;;;;;5049049;28;20056;-61
2023/05/31 12:10:08;;;;;;;6.72;3.70;;;;;;;;;;5053330;28;20097;-57
2023/05/31 12:12:35;;;;;;;9.43;3.70;;;;;;;;;;5047309;28;20415;-57
2023/05/31 12:15:01;;;;;;;7.53;3.72;;;;;;;;;;5044918;28;20043;-59
2023/05/31 12:17:29;;;;;;;16.27;3.50;;;;;;;;;;5057567;28;20070;-57
2023/05/31 12:19:55;;;;;;;9.73;3.80;;;;;;;;;;5049209;28;20478;-59
2023/05/31 12:22:20;;;;;;;10.63;3.53;;;;;;;;;;5049923;28;20388;-62
2023/05/31 12:24:49;;;;;;;14.27;3.80;;;;;;;;;;5048337;28;20013;-61
2023/05/31 12:27:14;;;;;;;;;;;;;;;;;;5054601;28;20338;-61
2023/05/31 12:29:39;;;;;;;10.13;3.60;;;;;;;;;;5053196;28;19911;-61
2023/05/31 12:32:05;;;;;;;10.43;3.67;;;;;;;;;;5063433;28;20138;-59
2023/05/31 12:34:35;;;;;;;5.97;3.63;;;;;;;;;;5055869;28;20029;-60
2023/05/31 12:37:10;;;;;;;10.82;3.88;;;;;;;;;;5046238;28;20024;-60
2023/05/31 12:39:36;;;;;;;7.55;3.20;;;;;;;;;;5055168;28;20115;-60
2023/05/31 12:42:01;;;;;;;6.80;3.40;;;;;;;;;;5064934;28;20147;-61
2023/05/31 12:44:27;;;;;;;9.40;3.42;;;;;;;;;;5046492;28;20070;-58
2023/05/31 12:47:00;;;;;;;10.55;3.50;;;;;;;;;;5045323;28;20078;-61
2023/05/31 12:49:30;;;;;;;10.55;3.83;;;;;;;;;;5045563;28;20387;-60
2023/05/31 12:52:01;;;;;;;12.98;2.92;;;;;;;;;;5047924;28;20037;-61
2023/05/31 12:54:27;;;;;;;6.95;3.22;;;;;;;;;;5046058;28;20031;-55
2023/05/31 12:56:53;;;;;;;15.80;3.60;;;;;;;;;;5059311;28;20024;-61
2023/05/31 12:59:18;;;;;;;9.68;3.55;;;;;;;;;;5063265;28;20040;-59
2023/05/31 13:01:43;;;;;;;6.22;3.50;;;;;;;;;;5043384;28;20349;-60
2023/05/31 13:04:10;;;;;;;7.95;3.17;;;;;;;;;;5053268;28;20028;-60
2023/05/31 13:06:35;;;;;;;12.27;3.63;;;;;;;;;;5062696;28;20048;-65
2023/05/31 13:09:04;;;;;;;6.90;3.20;;;;;;;;;;5039014;28;20039;-60
2023/05/31 13:11:29;;;;;;;;;;;;;;;;;;5044680;28;20028;-67
2023/05/31 13:13:54;;;;;;;11.67;3.63;;;;;;;;;;5048459;28;19931;-67
2023/05/31 13:16:20;;;;;;;6.57;2.93;;;;;;;;;;5003638;28;20037;-61
2023/05/31 13:18:46;;;;;;;7.38;3.30;;;;;;;;;;5045505;28;20078;-64
2023/05/31 13:21:11;;;;;;;8.48;3.60;;;;;;;;;;5046057;28;20028;-67
2023/05/31 13:23:37;;;;;;;7.10;3.33;;;;;;;;;;5043973;28;20283;-62
2023/05/31 13:26:02;;;;;;;5.97;2.90;;;;;;;;;;5053451;28;20035;-64
2023/05/31 13:28:27;;;;;;;11.18;3.40;;;;;;;;;;5048357;28;20272;-63
2023/05/31 13:30:53;;;;;;;74.50;7.30;;;;;;;;;;5063762;28;20024;-65
2023/05/31 13:33:18;;;;;;;13.37;4.33;;;;;;;;;;5038231;28;20289;-65
2023/05/31 13:35:43;;;;;;;9.97;3.50;;;;;;;;;;5046120;28;20017;-67
2023/05/31 13:38:09;;;;;;;5.67;2.77;;;;;;;;;;5045458;28;20265;-60
2023/05/31 13:40:36;;;;;;;7.77;3.30;;;;;;;;;;5052707;28;20273;-65
2023/05/31 13:43:02;;;;;;;8.75;3.45;;;;;;;;;;5063645;28;20298;-63
2023/05/31 13:45:27;;;;;;;24.52;3.85;;;;;;;;;;5064192;28;20387;-65
2023/05/31 13:47:52;;;;;;;7.90;3.50;;;;;;;;;;5064457;28;20032;-58
2023/05/31 13:50:18;;;;;;;6.03;3.63;;;;;;;;;;5063150;28;20741;-61
2023/05/31 13:52:43;;;;;;;9.77;3.13;;;;;;;;;;5043884;28;20472;-64
2023/05/31 13:55:08;;;;;;;14.30;3.27;;;;;;;;;;5051624;28;20257;-65
2023/05/31 13:57:33;;;;;;;5.23;2.93;;;;;;;;;;5051655;28;20261;-59
2023/05/31 13:59:59;;;;;;;4.60;3.40;;;;;;;;;;5049610;28;20100;-61
2023/05/31 14:02:24;;;;;;;9.13;3.43;;;;;;;;;;5054396;28;20254;-61
2023/05/31 14:04:49;;;;;;;9.87;3.73;;;;;;;;;;5050163;28;20775;-62
2023/05/31 14:07:15;;;;;;;7.93;3.67;;;;;;;;;;5000102;28;20052;-59
2023/05/31 14:09:42;;;;;;;6.05;3.25;;;;;;;;;;5052095;28;20016;-62
2023/05/31 14:14:51;;;;;;;9.35;3.80;;;;;;;;;;5048468;28;20024;-62
2023/05/31 14:17:16;;;;;;;4.47;3.10;;;;;;;;;;5046264;28;20032;-61
2023/05/31 14:19:42;;;;;;;8.00;3.45;;;;;;;;;;5061826;28;20032;-57
2023/05/31 14:22:07;;;;;;;7.95;3.40;;;;;;;;;;5045253;28;20025;-58
2023/05/31 14:24:33;;;;;;;5.57;3.57;;;;;;;;;;5063544;28;20452;-58
2023/05/31 14:26:58;;;;;;;8.30;3.45;;;;;;;;;;5050899;28;20238;-60
2023/05/31 14:29:23;;;;;;;6.50;3.10;;;;;;;;;;5051318;28;20024;-60
2023/05/31 14:31:49;;;;;;;7.40;4.00;;;;;;;;;;5043287;28;20325;-61
2023/05/31 14:34:15;;;;;;;10.65;3.90;;;;;;;;;;5049036;28;20072;-60
2023/05/31 14:36:40;;;;;;;9.32;3.65;;;;;;;;;;5051071;28;20063;-59